CW3900 Weather Reports


Display with metric or nautical units.
time (UTC)temp
F
wind
direction
speed
MPH
gust
MPH
rain 1hr
in
rain 24hr
in
rain mn
in
humidity
%
barometer
mb
20200403084515 40 360 0.0 0.0 0.00 0.00 0.00 84 1016.2
20200403083012 40 360 0.0 0.0 0.00 0.00 0.00 83 1016.2
20200403081507 41 360 0.0 0.0 0.00 0.00 0.00 81 1016.1
20200403080007 42 360 0.0 0.0 0.00 0.00 0.00 80 1016.2
20200403074505 43 360 0.0 0.0 0.00 0.00 0.00 78 1016.2
20200403073215 43 360 0.0 0.0 0.00 0.00 0.00 79 1016.3
20200403071647 43 360 0.0 0.0 0.00 0.00 0.00 78 1016.4
20200403070226 43 360 0.0 0.0 0.00 0.00 0.00 77 1016.4
20200403064609 43 360 0.0 0.0 0.00 0.00 0.00 77 1016.6
20200403063103 43 360 0.0 0.0 0.00 0.00 0.00 76 1016.7
20200403061610 44 360 0.0 0.0 0.00 0.00 0.00 74 1016.7
20200403060141 44 360 0.0 0.0 0.00 0.00 0.00 73 1016.8
20200403054621 45 360 0.0 0.0 0.00 0.00 0.00 70 1016.9
20200403053127 47 360 0.0 0.0 0.00 0.00 0.00 68 1016.8
20200403051625 46 360 0.0 0.0 0.00 0.00 0.00 70 1017.0
20200403050104 48 360 0.0 0.0 0.00 0.00 0.00 64 1016.9
20200403044657 48 360 0.0 0.0 0.00 0.00 0.00 62 1016.7
20200403043104 49 360 0.0 0.0 0.00 0.00 0.00 60 1016.8
20200403041612 52 360 0.0 1.0 0.00 0.00 0.00 52 1016.8
20200403040137 54 347 0.0 2.0 0.00 0.00 0.00 50 1016.8
20200403034551 54 360 1.0 3.0 0.00 0.00 0.00 49 1016.8
20200403033045 55 5 2.0 6.0 0.00 0.00 0.00 48 1016.9
20200403031644 55 348 1.0 3.0 0.00 0.00 0.00 47 1016.9
20200403030024 56 11 0.0 2.0 0.00 0.00 0.00 46 1016.9
20200403024529 57 355 2.0 6.0 0.00 0.00 0.00 45 1017.0
20200403023156 57 5 3.0 8.0 0.00 0.00 0.00 46 1016.8
20200403021538 57 360 3.0 8.0 0.00 0.00 0.00 46 1016.8
20200403020039 56 5 1.0 3.0 0.00 0.00 0.00 48 1016.8
20200403014612 54 13 0.0 2.0 0.00 0.00 0.00 53 1016.8
20200403013020 52 13 0.0 0.0 0.00 0.00 0.00 56 1016.8
20200403011540 53 13 0.0 0.0 0.00 0.00 0.00 56 1016.7
20200403010041 54 13 0.0 0.0 0.00 0.00 0.00 54 1016.4
20200403004518 55 13 0.0 0.0 0.00 0.00 0.00 50 1016.2
20200403003046 56 13 0.0 0.0 0.00 0.00 0.00 48 1016.0
20200403001531 57 13 0.0 0.0 0.00 0.00 0.00 46 1016.0
20200403000035 61 13 0.0 0.0 0.00 0.00 0.00 38 1015.7
20200402234524 62 13 1.0 4.0 0.00 0.00 0.00 34 1015.6
20200402233015 64 5 1.0 4.0 0.00 0.00 0.00 34 1015.4
20200402231515 65 355 4.0 10.0 0.00 0.00 0.00 32 1015.4
20200402230043 66 329 3.0 10.0 0.00 0.00 0.00 31 1015.3
20200402224529 66 350 3.0 13.0 0.00 0.00 0.00 31 1015.3
20200402223055 67 331 3.0 8.0 0.00 0.00 0.00 29 1015.1
20200402221553 67 355 3.0 8.0 0.00 0.00 0.00 32 1015.1
20200402220027 67 314 5.0 11.0 0.00 0.00 0.00 32 1015.1
20200402214516 67 355 1.0 14.0 0.00 0.00 0.00 32 1015.1
20200402213011 68 275 4.0 10.0 0.00 0.00 0.00 31 1015.3
20200402211537 68 11 3.0 9.0 0.00 0.00 0.00 33 1015.1
20200402210008 68 239 4.0 9.0 0.00 0.00 0.00 31 1015.3
20200402204508 67 360 5.0 14.0 0.00 0.00 0.00 34 1015.4
20200402203015 67 13 7.0 13.0 0.00 0.00 0.00 31 1015.5
20200402201509 67 321 3.0 10.0 0.00 0.00 0.00 32 1015.7
20200402200239 67 343 4.0 10.0 0.00 0.00 0.00 34 1015.7
20200402194734 66 342 6.0 10.0 0.00 0.00 0.00 35 1016.0
20200402193129 66 315 4.0 11.0 0.00 0.00 0.00 35 1016.2
20200402191619 65 250 5.0 13.0 0.00 0.00 0.00 35 1016.5
20200402190150 65 5 3.0 10.0 0.00 0.00 0.00 37 1016.8
20200402184828 64 15 4.0 13.0 0.00 0.00 0.00 37 1017.1
20200402183125 64 295 4.0 8.0 0.00 0.00 0.00 39 1017.5
20200402181613 63 331 6.0 14.0 0.00 0.00 0.00 40 1017.7
20200402180117 62 165 2.0 10.0 0.00 0.00 0.00 41 1017.8
20200402174705 62 214 4.0 13.0 0.00 0.00 0.00 42 1018.2
20200402173054 62 5 2.0 9.0 0.00 0.00 0.00 41 1018.3
20200402171607 61 321 5.0 9.0 0.00 0.00 0.00 42 1018.5
20200402170145 61 348 6.0 12.0 0.00 0.00 0.00 41 1018.8
20200402164554 60 336 3.0 12.0 0.00 0.00 0.00 43 1019.0
20200402163039 60 331 2.0 13.0 0.00 0.00 0.00 44 1019.1
20200402161534 61 360 3.0 10.0 0.00 0.00 0.00 44 1019.1
20200402160102 59 360 6.0 13.0 0.00 0.00 0.00 44 1019.5
20200402154524 58 18 6.0 14.0 0.00 0.00 0.00 46 1019.6
20200402153033 57 5 2.0 13.0 0.00 0.00 0.00 47 1019.8
20200402151515 57 5 4.0 9.0 0.00 0.00 0.00 48 1020.0
20200402150007 57 11 3.0 12.0 0.00 0.00 0.00 48 1019.8
20200402144505 56 5 6.0 11.0 0.00 0.00 0.00 47 1019.9
20200402143112 55 26 5.0 12.0 0.00 0.00 0.00 50 1019.8
20200402141625 54 11 2.0 10.0 0.00 0.00 0.00 54 1019.7
20200402140053 53 5 3.0 9.0 0.00 0.00 0.00 58 1019.9
20200402134735 52 9 2.0 9.0 0.00 0.00 0.00 62 1019.8
20200402133124 50 344 1.0 6.0 0.00 0.00 0.00 66 1019.9
20200402131630 49 346 4.0 8.0 0.00 0.00 0.00 67 1019.8
20200402130051 47 5 1.0 3.0 0.00 0.00 0.00 73 1019.8
20200402124629 45 5 2.0 5.0 0.00 0.00 0.00 75 1019.8
20200402123029 44 346 2.0 3.0 0.00 0.00 0.00 79 1019.7
20200402121546 41 355 0.0 1.0 0.00 0.00 0.00 85 1019.6
20200402120050 39 355 0.0 1.0 0.00 0.00 0.00 88 1019.4
20200402114603 37 355 0.0 0.0 0.00 0.00 0.00 88 1019.3
20200402113037 37 355 0.0 0.0 0.00 0.00 0.00 89 1019.2
20200402111544 37 355 0.0 0.0 0.00 0.00 0.00 89 1019.0
20200402110019 36 355 0.0 0.0 0.00 0.00 0.00 89 1018.8
20200402104518 36 355 0.0 0.0 0.00 0.00 0.00 88 1018.6
20200402103039 37 355 0.0 0.0 0.00 0.00 0.00 87 1018.3
20200402101513 37 355 0.0 0.0 0.00 0.00 0.00 88 1018.2
20200402100016 38 355 0.0 0.0 0.00 0.00 0.00 85 1018.0
20200402094509 38 355 0.0 0.0 0.00 0.00 0.00 86 1017.8
20200402093009 37 355 0.0 0.0 0.00 0.00 0.00 88 1017.9
20200402091541 37 355 0.0 0.0 0.00 0.00 0.00 88 1017.6
20200402090018 37 355 0.0 0.0 0.00 0.00 0.00 88 1017.5